Time;durP1;ratioP1;P1;durP2;ratioP2;P2;SDS_P1;SDS_P2;PMS_P1;PMS_P2;Temp;Humidity;BMP_temperature;BMP_pressure;BME280_temperature;BME280_humidity;BME280_pressure;Samples;Min_cycle;Max_cycle;Signal;HPM_P1;HPM_P2
2023/03/16 00:02:20;;;;;;;0.98;0.40;;;3.70;99.90;;;;;;5024690;28;20128;-87
2023/03/16 00:04:46;;;;;;;1.92;0.40;;;3.70;99.90;;;;;;5011071;28;20561;-86
2023/03/16 00:07:13;;;;;;;2.03;0.50;;;3.80;99.90;;;;;;5017707;28;20390;-88
2023/03/16 00:09:40;;;;;;;2.88;0.60;;;3.80;99.90;;;;;;5043963;28;20047;-88
2023/03/16 00:12:17;;;;;;;1.75;0.50;;;3.80;99.90;;;;;;5039934;28;20029;-88
2023/03/16 00:14:45;;;;;;;1.80;0.60;;;3.80;99.90;;;;;;5016314;28;20484;-86
2023/03/16 00:17:18;;;;;;;3.20;0.60;;;3.80;99.90;;;;;;5020214;28;20496;-86
2023/03/16 00:19:53;;;;;;;1.45;0.40;;;3.80;99.90;;;;;;5034852;28;20037;-87
2023/03/16 00:22:21;;;;;;;0.98;0.32;;;3.80;99.90;;;;;;5029600;28;20030;-87
2023/03/16 00:24:46;;;;;;;2.05;0.40;;;3.80;99.90;;;;;;5042314;28;20188;-86
2023/03/16 00:27:13;;;;;;;2.33;0.60;;;3.80;99.90;;;;;;5024908;28;20330;-87
2023/03/16 00:29:47;;;;;;;1.42;0.40;;;3.80;99.90;;;;;;5024137;28;20020;-86
2023/03/16 00:32:18;;;;;;;1.55;0.40;;;3.80;99.90;;;;;;5031365;28;20128;-87
2023/03/16 00:34:45;;;;;;;1.75;0.40;;;3.80;99.90;;;;;;5038963;28;20042;-87
2023/03/16 00:37:14;;;;;;;1.52;0.40;;;3.80;99.90;;;;;;5034602;28;20466;-87
2023/03/16 00:39:44;;;;;;;1.55;0.40;;;3.80;99.90;;;;;;5025266;28;20238;-86
2023/03/16 00:42:14;;;;;;;1.08;0.38;;;3.80;99.90;;;;;;5036613;28;20033;-88
2023/03/16 00:44:43;;;;;;;1.48;0.40;;;3.80;99.90;;;;;;5024066;28;20500;-87
2023/03/16 00:47:13;;;;;;;1.45;0.38;;;3.80;99.90;;;;;;5030790;28;20036;-84
2023/03/16 00:49:41;;;;;;;1.27;0.40;;;3.70;99.90;;;;;;5028871;28;20039;-86
2023/03/16 00:52:08;;;;;;;1.80;0.40;;;3.80;99.90;;;;;;5013051;28;20132;-85
2023/03/16 00:54:34;;;;;;;1.55;0.50;;;3.80;99.90;;;;;;5024371;28;20030;-87
2023/03/16 00:57:01;;;;;;;1.73;0.50;;;3.80;99.90;;;;;;5022284;28;20485;-87
2023/03/16 00:59:28;;;;;;;2.83;0.50;;;3.80;99.90;;;;;;5011266;28;20036;-87
2023/03/16 01:01:54;;;;;;;0.70;0.30;;;3.80;99.90;;;;;;5021679;28;20030;-87
2023/03/16 01:04:21;;;;;;;1.23;0.40;;;3.80;99.90;;;;;;5013084;28;20308;-87
2023/03/16 01:06:47;;;;;;;1.55;0.40;;;3.70;99.90;;;;;;5019993;28;20029;-87
2023/03/16 01:09:13;;;;;;;0.80;0.40;;;3.70;99.90;;;;;;5034857;28;20045;-85
2023/03/16 01:11:41;;;;;;;2.83;0.50;;;3.80;99.90;;;;;;5025304;28;20095;-87
2023/03/16 01:14:09;;;;;;;2.13;0.40;;;3.70;99.90;;;;;;5019526;28;20028;-87
2023/03/16 01:16:35;;;;;;;1.05;0.38;;;3.70;99.90;;;;;;5018054;28;20470;-83
2023/03/16 01:19:00;;;;;;;1.45;0.43;;;3.70;99.90;;;;;;5039424;28;20061;-87
2023/03/16 01:21:27;;;;;;;1.42;0.40;;;3.70;99.90;;;;;;5036374;28;20025;-86
2023/03/16 01:23:53;;;;;;;1.40;0.47;;;3.60;99.90;;;;;;5033925;28;20044;-85
2023/03/16 01:26:21;;;;;;;1.30;0.40;;;3.60;99.90;;;;;;5020013;28;20021;-86
2023/03/16 01:28:48;;;;;;;1.70;0.50;;;3.60;99.90;;;;;;5028417;28;20057;-86
2023/03/16 01:31:15;;;;;;;1.75;0.50;;;3.60;99.90;;;;;;5022218;28;20029;-86
2023/03/16 01:33:41;;;;;;;1.02;0.40;;;3.70;99.90;;;;;;5018942;28;20030;-85
2023/03/16 01:36:16;;;;;;;1.48;0.47;;;3.60;99.90;;;;;;5021190;28;20029;-85
2023/03/16 01:39:00;;;;;;;2.95;0.40;;;3.60;99.90;;;;;;5026846;28;20029;-86
2023/03/16 01:41:30;;;;;;;1.90;0.50;;;3.60;99.90;;;;;;5038017;28;20473;-88
2023/03/16 01:43:57;;;;;;;1.20;0.40;;;3.60;99.90;;;;;;5034852;28;20052;-87
2023/03/16 01:46:27;;;;;;;1.33;0.40;;;3.60;99.90;;;;;;5023072;28;20068;-86
2023/03/16 01:49:11;;;;;;;1.40;0.35;;;3.60;99.90;;;;;;5019433;28;20065;-87
2023/03/16 01:51:50;;;;;;;1.83;0.47;;;3.60;99.90;;;;;;5018796;28;20028;-87
2023/03/16 01:54:43;;;;;;;1.25;0.50;;;3.60;99.90;;;;;;5017346;28;20031;-87
2023/03/16 01:57:11;;;;;;;1.58;0.45;;;3.60;99.90;;;;;;5018704;28;20029;-87
2023/03/16 01:59:48;;;;;;;1.10;0.40;;;3.60;99.90;;;;;;5015443;28;20030;-86
2023/03/16 02:02:19;;;;;;;1.52;0.43;;;3.50;99.90;;;;;;5017763;28;20641;-86
2023/03/16 02:05:00;;;;;;;1.77;0.50;;;3.50;99.90;;;;;;5036243;28;20022;-85
2023/03/16 02:07:29;;;;;;;1.65;0.50;;;3.50;99.90;;;;;;5023243;28;20123;-87
2023/03/16 02:09:59;;;;;;;1.35;0.50;;;3.50;99.90;;;;;;5024986;28;20021;-87
2023/03/16 02:12:26;;;;;;;1.42;0.40;;;3.50;99.90;;;;;;5022228;28;20029;-85
2023/03/16 02:14:54;;;;;;;1.35;0.50;;;3.50;99.90;;;;;;5014480;28;20515;-85
2023/03/16 02:17:23;;;;;;;1.60;0.50;;;3.50;99.90;;;;;;5041234;28;20220;-85
2023/03/16 02:20:15;;;;;;;3.00;0.50;;;3.50;99.90;;;;;;5021917;28;20029;-87
2023/03/16 02:22:45;;;;;;;2.47;0.50;;;3.50;99.90;;;;;;5014003;28;20048;-86
2023/03/16 02:25:13;;;;;;;1.15;0.40;;;3.50;99.90;;;;;;5017455;28;20195;-86
2023/03/16 02:27:48;;;;;;;1.20;0.43;;;3.50;99.90;;;;;;5011328;28;20433;-85
2023/03/16 02:30:16;;;;;;;1.77;0.50;;;3.50;99.90;;;;;;5038260;28;20036;-87
2023/03/16 02:32:54;;;;;;;;;;;3.50;99.90;;;;;;5031269;28;20037;-86
2023/03/16 02:35:20;;;;;;;1.55;0.40;;;3.50;99.90;;;;;;5029585;28;19916;-86
2023/03/16 02:37:47;;;;;;;1.95;0.50;;;3.50;99.90;;;;;;5026704;28;20063;-86
2023/03/16 02:40:21;;;;;;;1.83;0.50;;;3.50;99.90;;;;;;5028590;28;20021;-85
2023/03/16 02:43:10;;;;;;;1.15;0.40;;;3.50;99.90;;;;;;5034956;28;20087;-86
2023/03/16 02:45:54;;;;;;;1.45;0.40;;;3.50;99.90;;;;;;5034518;28;20090;-87
2023/03/16 02:48:28;;;;;;;1.90;0.63;;;3.50;99.90;;;;;;5037901;28;20029;-86
2023/03/16 02:50:54;;;;;;;1.23;0.50;;;3.60;99.90;;;;;;5040681;28;20021;-85
2023/03/16 02:53:21;;;;;;;2.28;0.50;;;3.60;99.90;;;;;;5018364;28;20113;-86
2023/03/16 02:55:46;;;;;;;2.60;0.50;;;3.60;99.90;;;;;;5012194;28;20367;-87
2023/03/16 02:58:13;;;;;;;3.05;0.57;;;3.60;99.90;;;;;;5031219;28;20036;-87
2023/03/16 03:00:39;;;;;;;1.77;0.57;;;3.60;99.90;;;;;;5038701;28;20025;-87
2023/03/16 03:03:07;;;;;;;3.42;0.60;;;3.60;99.90;;;;;;5039428;28;20036;-86
2023/03/16 03:05:33;;;;;;;1.80;0.60;;;3.70;99.90;;;;;;5041643;28;20033;-86
2023/03/16 03:07:58;;;;;;;1.75;0.50;;;3.60;99.90;;;;;;5026410;28;20120;-85
2023/03/16 03:10:25;;;;;;;1.33;0.47;;;3.60;99.90;;;;;;5018748;28;20017;-87
2023/03/16 03:12:51;;;;;;;1.15;0.50;;;3.70;99.90;;;;;;5020321;28;20035;-85
2023/03/16 03:15:17;;;;;;;1.33;0.50;;;3.70;99.90;;;;;;5052712;28;20119;-85
2023/03/16 03:17:53;;;;;;;2.78;0.60;;;3.70;99.90;;;;;;5039686;28;20041;-86
2023/03/16 03:20:20;;;;;;;2.05;0.50;;;3.70;99.90;;;;;;5036929;28;20363;-86
2023/03/16 03:22:48;;;;;;;2.28;0.55;;;3.70;99.90;;;;;;5018920;28;20037;-86
2023/03/16 03:25:16;;;;;;;2.50;0.60;;;3.70;99.90;;;;;;5023570;28;20097;-87
2023/03/16 03:27:43;;;;;;;1.77;0.50;;;3.70;99.90;;;;;;5021831;28;20129;-86
2023/03/16 03:30:13;;;;;;;2.95;0.50;;;3.70;99.90;;;;;;5039345;28;20021;-86
2023/03/16 03:32:40;;;;;;;1.75;0.50;;;3.70;99.90;;;;;;5021638;28;20111;-85
2023/03/16 03:35:06;;;;;;;1.60;0.60;;;3.80;99.90;;;;;;5036314;28;20397;-86
2023/03/16 03:37:32;;;;;;;1.77;0.50;;;3.80;99.90;;;;;;5029026;28;20037;-86
2023/03/16 03:39:58;;;;;;;1.88;0.50;;;3.80;99.90;;;;;;5014407;28;20390;-88
2023/03/16 03:42:24;;;;;;;3.30;0.80;;;3.80;99.90;;;;;;5037420;28;20477;-87
2023/03/16 03:44:51;;;;;;;1.30;0.50;;;3.80;99.90;;;;;;5021670;28;20060;-86
2023/03/16 03:47:17;;;;;;;1.45;0.50;;;3.80;99.90;;;;;;5012465;28;20052;-87
2023/03/16 03:49:43;;;;;;;1.52;0.47;;;3.80;99.90;;;;;;5025546;28;20328;-87
2023/03/16 03:52:09;;;;;;;4.25;0.60;;;3.90;99.90;;;;;;5026103;28;20489;-87
2023/03/16 03:54:36;;;;;;;2.97;0.60;;;3.80;99.90;;;;;;5033292;28;20025;-87
2023/03/16 03:57:06;;;;;;;2.22;0.77;;;3.80;99.90;;;;;;5012313;28;20057;-83
2023/03/16 03:59:31;;;;;;;1.70;0.70;;;3.80;99.90;;;;;;5022488;28;20103;-85
2023/03/16 04:02:12;;;;;;;1.33;0.50;;;3.80;99.90;;;;;;5011476;28;20029;-85
2023/03/16 04:04:44;;;;;;;1.13;0.40;;;3.80;99.90;;;;;;5025655;28;20577;-87
2023/03/16 04:07:11;;;;;;;2.10;0.50;;;3.70;99.90;;;;;;5025257;28;20033;-87
2023/03/16 04:09:38;;;;;;;1.40;0.50;;;3.70;99.90;;;;;;5037706;28;20110;-86
2023/03/16 04:12:06;;;;;;;1.48;0.52;;;3.70;99.90;;;;;;5019610;28;20052;-87
2023/03/16 04:14:33;;;;;;;1.80;0.50;;;3.70;99.90;;;;;;5012065;28;20030;-87
2023/03/16 04:17:03;;;;;;;1.40;0.50;;;3.60;99.90;;;;;;5012273;28;20048;-85
2023/03/16 04:19:29;;;;;;;1.88;0.50;;;3.70;99.90;;;;;;5010077;28;20116;-87
2023/03/16 04:21:55;;;;;;;1.83;0.50;;;3.60;99.90;;;;;;5035128;28;20031;-88
2023/03/16 04:24:21;;;;;;;2.00;0.65;;;3.60;99.90;;;;;;5018370;28;20037;-85
2023/03/16 04:26:47;;;;;;;1.73;0.50;;;3.60;99.90;;;;;;5020424;28;20493;-86
2023/03/16 04:29:16;;;;;;;2.78;0.80;;;3.60;99.90;;;;;;5009935;28;20030;-87
2023/03/16 04:31:43;;;;;;;1.73;0.70;;;3.60;99.90;;;;;;5029577;28;20500;-87
2023/03/16 04:34:10;;;;;;;2.45;0.65;;;3.60;99.90;;;;;;5016105;28;20025;-85
2023/03/16 04:36:37;;;;;;;2.03;0.68;;;3.60;99.90;;;;;;5038747;28;20026;-85
2023/03/16 04:39:04;;;;;;;1.75;0.60;;;3.50;99.90;;;;;;5042833;28;20144;-86
2023/03/16 04:41:31;;;;;;;3.28;0.50;;;3.50;99.90;;;;;;5020326;28;20030;-86
2023/03/16 04:44:03;;;;;;;1.65;0.50;;;3.60;99.90;;;;;;5035838;28;20098;-87
2023/03/16 04:46:29;;;;;;;1.88;0.70;;;3.60;99.90;;;;;;5021392;28;20033;-86
2023/03/16 04:48:58;;;;;;;1.63;0.70;;;3.60;99.90;;;;;;5025274;28;20029;-86
2023/03/16 04:51:26;;;;;;;2.30;0.60;;;3.60;99.90;;;;;;5034116;28;20384;-85
2023/03/16 04:54:18;;;;;;;2.25;0.57;;;3.60;99.90;;;;;;5034442;28;20663;-86
2023/03/16 04:56:44;;;;;;;1.50;0.40;;;3.60;99.90;;;;;;5029749;28;20030;-86
2023/03/16 04:59:28;;;;;;;3.20;0.57;;;3.60;99.90;;;;;;5025019;28;20056;-87
2023/03/16 05:02:11;;;;;;;1.83;0.77;;;3.60;99.90;;;;;;5024991;28;20067;-87
2023/03/16 05:04:37;;;;;;;1.75;0.50;;;3.60;99.90;;;;;;5020700;28;20033;-87
2023/03/16 05:07:04;;;;;;;2.20;0.47;;;3.50;99.90;;;;;;5053294;28;20028;-87
2023/03/16 05:09:34;;;;;;;2.28;0.43;;;3.60;99.90;;;;;;5039659;28;20124;-85
2023/03/16 05:11:59;;;;;;;2.05;0.65;;;3.50;99.90;;;;;;5041029;28;20544;-85
2023/03/16 05:14:26;;;;;;;2.05;0.82;;;3.50;99.90;;;;;;5026015;28;20053;-86
2023/03/16 05:17:04;;;;;;;2.10;0.60;;;3.50;99.90;;;;;;5036991;28;20037;-85
2023/03/16 05:19:30;;;;;;;1.60;0.60;;;3.50;99.90;;;;;;5023003;28;20107;-88
2023/03/16 05:21:55;;;;;;;2.47;0.57;;;3.50;99.90;;;;;;5031944;28;20077;-87
2023/03/16 05:24:22;;;;;;;2.60;0.60;;;3.60;99.90;;;;;;5017878;28;20047;-85
2023/03/16 05:26:48;;;;;;;1.58;0.60;;;3.60;99.90;;;;;;5020208;28;20049;-87
2023/03/16 05:29:16;;;;;;;1.55;0.60;;;3.60;99.90;;;;;;5030206;28;20156;-86
2023/03/16 05:31:46;;;;;;;2.13;0.65;;;3.60;99.90;;;;;;5024694;28;20034;-86
2023/03/16 05:34:14;;;;;;;;;;;3.70;99.90;;;;;;5030127;28;20021;-86
2023/03/16 05:36:39;;;;;;;2.08;0.60;;;3.70;99.90;;;;;;5039260;28;19909;-84
2023/03/16 05:39:10;;;;;;;1.98;0.52;;;3.70;99.90;;;;;;5025594;28;20111;-85
2023/03/16 05:41:41;;;;;;;1.98;0.40;;;3.70;99.90;;;;;;5014992;28;20025;-86
2023/03/16 05:44:21;;;;;;;1.80;0.65;;;3.70;99.90;;;;;;5025108;28;20028;-87
2023/03/16 05:47:10;;;;;;;1.60;0.50;;;3.70;99.90;;;;;;5031630;28;20064;-85
2023/03/16 05:49:40;;;;;;;1.88;0.65;;;3.70;99.90;;;;;;5040787;28;20032;-86
2023/03/16 05:52:12;;;;;;;1.80;0.50;;;3.70;99.90;;;;;;5024073;28;20547;-85
2023/03/16 05:54:38;;;;;;;3.10;0.70;;;3.70;99.90;;;;;;5022257;28;20069;-87
2023/03/16 05:57:05;;;;;;;2.17;0.65;;;3.80;99.90;;;;;;5024357;28;20060;-85
2023/03/16 05:59:32;;;;;;;1.60;0.50;;;3.80;99.90;;;;;;5030702;28;20348;-86
2023/03/16 06:01:57;;;;;;;2.00;0.60;;;3.80;99.90;;;;;;5024458;28;20021;-85
2023/03/16 06:04:23;;;;;;;2.20;0.80;;;3.80;99.90;;;;;;5022475;28;20044;-86
2023/03/16 06:06:48;;;;;;;2.38;0.60;;;3.80;99.90;;;;;;5023273;28;20072;-88
2023/03/16 06:09:24;;;;;;;2.55;0.73;;;3.80;99.90;;;;;;5025885;28;20432;-86
2023/03/16 06:11:50;;;;;;;1.65;0.60;;;3.80;99.90;;;;;;5020976;28;20069;-87
2023/03/16 06:14:17;;;;;;;1.48;0.50;;;3.90;99.90;;;;;;5038408;28;20017;-86
2023/03/16 06:16:43;;;;;;;1.40;0.50;;;3.90;99.90;;;;;;5025638;28;20428;-86
2023/03/16 06:19:09;;;;;;;1.73;0.50;;;3.90;99.90;;;;;;5024293;28;20467;-87
2023/03/16 06:21:35;;;;;;;1.40;0.60;;;3.90;99.90;;;;;;5023377;28;20028;-87
2023/03/16 06:24:08;;;;;;;1.48;0.60;;;3.90;99.90;;;;;;5014868;28;20120;-88
2023/03/16 06:26:35;;;;;;;1.90;0.77;;;4.00;99.90;;;;;;5042803;28;20037;-88
2023/03/16 06:29:02;;;;;;;1.40;0.60;;;4.00;99.90;;;;;;5024761;28;20051;-85
2023/03/16 06:31:28;;;;;;;1.15;0.50;;;4.00;99.90;;;;;;5015432;28;20389;-88
2023/03/16 06:33:54;;;;;;;1.60;0.60;;;4.00;99.90;;;;;;5042496;28;20033;-87
2023/03/16 06:36:20;;;;;;;2.45;0.60;;;4.10;99.90;;;;;;5029943;28;20383;-87
2023/03/16 06:38:51;;;;;;;2.25;0.68;;;4.20;99.90;;;;;;5013300;28;20026;-87
2023/03/16 06:41:36;;;;;;;1.90;0.73;;;4.20;99.90;;;;;;5025491;28;20026;-88
2023/03/16 06:44:02;;;;;;;2.38;0.73;;;4.20;99.90;;;;;;5013597;28;20038;-88
2023/03/16 06:46:28;;;;;;;2.58;0.70;;;4.20;99.90;;;;;;5022438;28;20159;-88
2023/03/16 06:48:56;;;;;;;4.15;0.70;;;4.20;99.90;;;;;;5027393;28;20094;-89
2023/03/16 06:51:22;;;;;;;1.63;0.60;;;4.30;99.90;;;;;;5024436;28;20032;-88
2023/03/16 06:53:49;;;;;;;3.22;0.90;;;4.20;99.90;;;;;;5023464;28;20033;-86
2023/03/16 06:56:15;;;;;;;2.05;0.50;;;4.20;99.90;;;;;;5028118;28;20111;-86
2023/03/16 06:58:43;;;;;;;2.97;0.50;;;4.30;99.90;;;;;;5012655;28;20572;-86
2023/03/16 07:01:09;;;;;;;2.63;0.70;;;4.30;99.90;;;;;;5026719;28;20233;-88
2023/03/16 07:03:35;;;;;;;1.98;0.65;;;4.30;99.90;;;;;;5020653;28;20029;-85
2023/03/16 07:06:08;;;;;;;2.67;0.60;;;4.30;99.90;;;;;;5020079;28;20507;-87
2023/03/16 07:08:34;;;;;;;2.13;0.70;;;4.30;99.90;;;;;;5014273;28;20037;-86
2023/03/16 07:11:00;;;;;;;2.83;0.68;;;4.30;99.90;;;;;;5017098;28;20112;-86
2023/03/16 07:13:26;;;;;;;1.50;0.60;;;4.40;99.90;;;;;;5044948;28;20026;-88
2023/03/16 07:15:53;;;;;;;3.10;1.02;;;4.30;99.90;;;;;;5022817;28;20022;-88
2023/03/16 07:18:20;;;;;;;2.30;1.00;;;4.30;99.90;;;;;;5011778;28;20028;-88
2023/03/16 07:20:46;;;;;;;3.22;0.98;;;4.30;99.90;;;;;;5021655;28;20021;-88
2023/03/16 07:23:12;;;;;;;2.90;1.00;;;4.30;99.90;;;;;;5019846;28;20052;-88
2023/03/16 07:25:39;;;;;;;3.38;1.00;;;4.30;99.90;;;;;;5023618;28;20025;-88
2023/03/16 07:28:05;;;;;;;2.08;0.88;;;4.40;99.90;;;;;;5024810;28;20440;-86
2023/03/16 07:30:36;;;;;;;3.40;0.80;;;4.40;99.90;;;;;;5025567;28;20037;-86
2023/03/16 07:33:04;;;;;;;4.32;0.82;;;4.40;99.90;;;;;;5025515;28;20033;-86
2023/03/16 07:35:30;;;;;;;2.70;1.00;;;4.50;99.90;;;;;;5009004;28;20080;-88
2023/03/16 07:37:57;;;;;;;3.40;0.85;;;4.60;99.90;;;;;;5017591;28;20053;-89
2023/03/16 07:40:23;;;;;;;2.15;0.90;;;4.60;99.90;;;;;;5024893;28;20033;-88
2023/03/16 07:42:49;;;;;;;3.70;1.10;;;4.70;99.90;;;;;;5022687;28;20052;-88
2023/03/16 07:45:25;;;;;;;3.83;1.05;;;4.70;99.90;;;;;;5007853;28;20021;-86
2023/03/16 07:47:51;;;;;;;3.20;1.15;;;4.70;99.90;;;;;;5019398;28;20078;-86
2023/03/16 07:50:29;;;;;;;3.13;0.90;;;4.70;99.90;;;;;;5022585;28;20021;-88
2023/03/16 07:52:55;;;;;;;2.65;0.90;;;4.70;99.90;;;;;;5021240;28;20034;-87
2023/03/16 07:55:20;;;;;;;2.17;0.80;;;4.70;99.90;;;;;;5035315;28;20401;-88
2023/03/16 07:57:47;;;;;;;2.85;1.25;;;4.70;99.90;;;;;;5041827;28;20028;-86
2023/03/16 08:00:15;;;;;;;3.03;0.77;;;4.70;99.90;;;;;;5014167;28;20029;-88
2023/03/16 08:02:43;;;;;;;3.10;0.80;;;4.70;99.90;;;;;;5028160;28;20370;-89
2023/03/16 08:05:11;;;;;;;3.67;0.70;;;4.70;99.90;;;;;;5021409;28;20034;-87
2023/03/16 08:07:40;;;;;;;1.30;0.52;;;4.70;99.90;;;;;;5018011;28;20040;-89
2023/03/16 08:10:15;;;;;;;1.95;0.60;;;4.70;99.90;;;;;;5026311;28;20037;-89
2023/03/16 08:12:48;;;;;;;1.70;0.80;;;4.70;99.90;;;;;;5025668;28;20388;-88
2023/03/16 08:15:14;;;;;;;2.10;0.60;;;4.70;99.90;;;;;;5007590;28;20127;-87
2023/03/16 08:17:42;;;;;;;1.58;0.63;;;4.70;99.90;;;;;;5037172;28;20116;-88
2023/03/16 08:20:14;;;;;;;2.88;1.27;;;4.60;99.90;;;;;;5011226;28;20033;-88
2023/03/16 08:22:44;;;;;;;1.65;0.60;;;4.60;99.90;;;;;;5012713;28;20041;-87
2023/03/16 08:25:11;;;;;;;2.83;0.80;;;4.60;99.90;;;;;;5019908;28;20021;-89
2023/03/16 08:27:41;;;;;;;3.25;0.90;;;4.70;99.90;;;;;;5020164;28;20080;-89
2023/03/16 08:30:10;;;;;;;2.95;0.82;;;4.70;99.90;;;;;;5024953;28;20071;-89
2023/03/16 08:32:40;;;;;;;2.22;0.70;;;4.70;99.90;;;;;;5010738;28;20080;-87
2023/03/16 08:35:09;;;;;;;2.05;0.88;;;4.70;99.90;;;;;;5016843;28;20295;-88
2023/03/16 08:37:35;;;;;;;3.25;1.00;;;4.70;99.90;;;;;;5020791;28;20034;-87
2023/03/16 08:40:03;;;;;;;1.77;0.80;;;4.80;99.90;;;;;;5011743;28;20460;-87
2023/03/16 08:42:28;;;;;;;3.05;1.10;;;4.80;99.90;;;;;;5021959;28;20032;-88
2023/03/16 08:44:59;;;;;;;2.58;0.68;;;4.80;99.90;;;;;;5017214;28;20025;-89
2023/03/16 08:47:27;;;;;;;4.90;1.00;;;4.80;99.90;;;;;;5033769;28;20112;-89
2023/03/16 08:49:53;;;;;;;2.90;0.90;;;4.90;99.90;;;;;;5007547;28;20025;-88
2023/03/16 08:52:18;;;;;;;2.78;1.20;;;5.00;99.90;;;;;;5019661;28;20029;-88
2023/03/16 08:54:44;;;;;;;3.38;1.35;;;5.10;99.90;;;;;;5019496;28;20078;-88
2023/03/16 08:57:11;;;;;;;3.90;1.00;;;5.20;99.90;;;;;;5045643;28;20021;-89
2023/03/16 08:59:36;;;;;;;3.67;1.13;;;5.30;99.90;;;;;;5012363;28;20036;-88
2023/03/16 09:02:03;;;;;;;2.22;0.80;;;5.40;99.90;;;;;;5024499;28;20026;-88
2023/03/16 09:04:29;;;;;;;3.33;1.00;;;5.50;99.90;;;;;;5029210;28;20049;-88
2023/03/16 09:06:55;;;;;;;3.95;0.85;;;5.50;99.90;;;;;;5017699;28;20025;-88
2023/03/16 09:09:21;;;;;;;2.58;0.68;;;5.60;99.90;;;;;;5015478;28;20037;-86
2023/03/16 09:11:48;;;;;;;2.90;1.00;;;5.60;99.90;;;;;;5016707;28;20048;-89
2023/03/16 09:14:14;;;;;;;3.63;1.67;;;5.60;99.90;;;;;;5015774;28;20040;-89
2023/03/16 09:16:40;;;;;;;5.47;1.30;;;5.60;99.90;;;;;;5023335;28;20388;-87
2023/03/16 09:19:06;;;;;;;3.72;0.90;;;5.70;99.90;;;;;;5031292;28;20475;-88
2023/03/16 09:21:33;;;;;;;2.67;0.85;;;5.70;99.90;;;;;;5015607;28;20564;-87
2023/03/16 09:24:01;;;;;;;2.47;0.80;;;5.80;99.90;;;;;;5023620;28;20037;-89
2023/03/16 09:26:27;;;;;;;3.35;1.20;;;5.80;99.90;;;;;;5033489;28;20079;-88
2023/03/16 09:28:53;;;;;;;2.05;0.85;;;5.70;99.90;;;;;;5032045;28;20556;-89
2023/03/16 09:31:19;;;;;;;2.38;1.17;;;5.70;99.90;;;;;;5039225;28;20022;-89
2023/03/16 09:33:45;;;;;;;3.50;0.88;;;5.80;99.90;;;;;;5022208;28;20121;-88
2023/03/16 09:36:12;;;;;;;2.40;0.80;;;5.90;99.90;;;;;;5014561;28;20029;-87
2023/03/16 09:38:38;;;;;;;2.05;0.80;;;5.90;99.90;;;;;;5014345;28;20052;-85
2023/03/16 09:41:29;;;;;;;1.60;0.70;;;6.00;99.90;;;;;;5027529;28;20034;-88
2023/03/16 09:44:22;;;;;;;3.50;0.90;;;6.10;99.90;;;;;;5023402;28;20068;-89
2023/03/16 09:46:49;;;;;;;3.72;1.13;;;6.20;99.90;;;;;;5043960;28;20034;-88
2023/03/16 09:49:19;;;;;;;4.60;1.05;;;6.20;99.90;;;;;;5026077;28;20138;-89
2023/03/16 09:52:12;;;;;;;3.47;1.00;;;6.30;99.90;;;;;;5040452;28;20053;-88
2023/03/16 09:54:58;;;;;;;2.00;0.80;;;6.40;99.90;;;;;;5036025;28;20499;-89
2023/03/16 09:57:34;;;;;;;2.50;0.90;;;6.50;99.90;;;;;;5026125;28;20508;-88
2023/03/16 10:00:18;;;;;;;3.40;0.85;;;6.60;99.90;;;;;;5025810;28;20033;-90
2023/03/16 10:02:58;;;;;;;4.47;1.55;;;6.60;99.90;;;;;;5014873;28;20041;-89
2023/03/16 10:05:26;;;;;;;3.45;0.70;;;6.70;99.90;;;;;;5027914;28;20034;-89
2023/03/16 10:08:03;;;;;;;3.70;0.80;;;6.80;99.90;;;;;;5016385;28;20029;-89
2023/03/16 10:10:54;;;;;;;3.58;0.70;;;6.80;99.90;;;;;;5035263;28;20049;-87
2023/03/16 10:13:33;;;;;;;1.98;0.70;;;6.80;99.90;;;;;;5029396;28;20495;-89
2023/03/16 10:16:02;;;;;;;3.88;0.70;;;6.80;99.90;;;;;;5022025;28;20033;-92
2023/03/16 10:18:34;;;;;;;2.20;0.70;;;6.90;99.90;;;;;;5034752;28;20059;-89
2023/03/16 10:21:01;;;;;;;2.63;0.88;;;6.90;99.90;;;;;;5029007;28;20037;-89
2023/03/16 10:23:31;;;;;;;2.50;0.82;;;6.90;99.90;;;;;;5022857;28;20451;-89
2023/03/16 10:25:57;;;;;;;3.13;0.80;;;7.00;99.90;;;;;;5039775;28;20064;-89
2023/03/16 10:28:25;;;;;;;2.53;0.60;;;7.10;99.90;;;;;;5023026;28;20088;-89
2023/03/16 10:30:57;;;;;;;1.70;0.60;;;7.20;99.90;;;;;;5025476;28;20029;-88
2023/03/16 10:33:26;;;;;;;1.83;0.70;;;7.40;99.90;;;;;;5025269;28;20037;-87
2023/03/16 10:35:55;;;;;;;1.63;0.65;;;7.40;99.90;;;;;;5024661;28;20108;-88
2023/03/16 10:38:45;;;;;;;2.22;0.77;;;7.60;99.90;;;;;;5021844;28;20028;-89
2023/03/16 10:41:17;;;;;;;3.88;0.70;;;7.90;99.90;;;;;;5030383;28;20036;-89
2023/03/16 10:43:44;;;;;;;2.13;0.50;;;8.10;99.90;;;;;;5026856;28;20038;-88
2023/03/16 10:46:10;;;;;;;3.13;0.60;;;8.30;99.90;;;;;;5039263;28;20504;-88
2023/03/16 10:48:37;;;;;;;3.75;0.70;;;8.80;99.90;;;;;;5022433;28;20033;-90
2023/03/16 10:51:09;;;;;;;2.63;1.00;;;9.20;99.90;;;;;;5013329;28;20033;-87
2023/03/16 10:53:39;;;;;;;2.92;0.77;;;9.20;99.90;;;;;;5019711;28;20496;-90
2023/03/16 10:56:19;;;;;;;2.28;0.80;;;9.30;99.90;;;;;;5011813;28;20025;-91
2023/03/16 10:58:45;;;;;;;2.83;0.65;;;9.20;99.90;;;;;;5021353;28;20036;-88
2023/03/16 11:01:25;;;;;;;2.25;0.90;;;9.40;99.90;;;;;;5011441;28;20025;-87
2023/03/16 11:03:54;;;;;;;2.45;0.70;;;9.30;99.90;;;;;;5022715;28;20527;-87
2023/03/16 11:06:29;;;;;;;3.80;0.80;;;9.20;99.90;;;;;;5026375;28;20047;-89
2023/03/16 11:09:07;;;;;;;2.35;0.60;;;9.10;99.90;;;;;;5037864;28;20051;-89
2023/03/16 11:11:33;;;;;;;2.17;0.70;;;9.40;99.90;;;;;;5011175;28;20025;-88
2023/03/16 11:14:03;;;;;;;2.97;0.60;;;9.60;99.90;;;;;;5041480;28;20033;-88
2023/03/16 11:16:54;;;;;;;2.90;0.90;;;9.80;99.90;;;;;;5018840;28;20041;-89
2023/03/16 11:19:26;;;;;;;2.58;0.63;;;9.60;99.90;;;;;;5020475;28;20037;-92
2023/03/16 11:22:15;;;;;;;2.33;0.60;;;9.90;99.90;;;;;;5019854;28;20120;-89
2023/03/16 11:24:43;;;;;;;2.05;0.70;;;9.90;99.90;;;;;;5039325;28;20037;-91
2023/03/16 11:27:41;;;;;;;3.00;0.80;;;9.70;99.90;;;;;;5030836;28;20041;-90
2023/03/16 11:30:23;;;;;;;2.95;0.80;;;9.70;99.90;;;;;;5016517;28;20042;-87
2023/03/16 11:32:52;;;;;;;2.35;0.68;;;9.80;99.90;;;;;;5016465;28;20026;-89
2023/03/16 11:35:32;;;;;;;2.80;0.60;;;9.90;99.90;;;;;;5018681;28;20021;-89
2023/03/16 11:37:58;;;;;;;;;;;10.00;99.90;;;;;;5006832;28;20397;-90
2023/03/16 11:40:46;;;;;;;3.70;1.25;;;10.10;99.90;;;;;;5014229;28;19917;-89
2023/03/16 11:43:30;;;;;;;1.92;0.50;;;10.10;99.90;;;;;;5019762;28;20048;-90
2023/03/16 11:46:33;;;;;;;1.85;0.65;;;10.00;99.90;;;;;;5012616;28;20039;-88
2023/03/16 11:49:08;;;;;;;2.95;0.77;;;9.90;99.90;;;;;;5008556;28;20037;-90
2023/03/16 11:51:47;;;;;;;2.25;0.50;;;10.00;99.90;;;;;;5026905;28;20030;-88
2023/03/16 11:54:38;;;;;;;2.15;0.60;;;10.10;99.90;;;;;;5019016;28;20041;-88
2023/03/16 11:57:17;;;;;;;;;;;10.00;99.90;;;;;;5010011;28;20381;-89
2023/03/16 12:00:07;;;;;;;3.13;0.80;;;9.90;99.90;;;;;;5035385;28;19909;-90
2023/03/16 12:03:16;;;;;;;2.53;0.50;;;10.00;99.90;;;;;;5016019;28;20061;-89
2023/03/16 12:06:09;;;;;;;1.90;0.68;;;10.10;99.90;;;;;;5033367;28;20026;-88
2023/03/16 12:08:47;;;;;;;1.98;0.57;;;10.00;99.90;;;;;;5016387;28;20035;-89
2023/03/16 12:11:45;;;;;;;2.35;0.60;;;10.10;99.90;;;;;;5021054;28;20029;-89
2023/03/16 12:14:29;;;;;;;2.83;0.60;;;10.10;99.90;;;;;;4989170;28;20167;-89
2023/03/16 12:17:13;;;;;;;3.42;0.80;;;10.10;99.90;;;;;;5030845;28;20029;-87
2023/03/16 12:19:45;;;;;;;3.10;0.80;;;10.10;99.90;;;;;;5035071;28;20117;-89
2023/03/16 12:22:20;;;;;;;2.25;0.60;;;10.10;99.90;;;;;;5020647;28;20465;-87
2023/03/16 12:24:47;;;;;;;2.95;0.65;;;10.30;99.90;;;;;;5019078;28;20021;-89
2023/03/16 12:27:28;;;;;;;2.50;0.55;;;10.30;99.90;;;;;;5017350;28;20049;-90
2023/03/16 12:30:29;;;;;;;1.30;0.50;;;10.40;99.90;;;;;;5038089;28;20029;-87
2023/03/16 12:33:05;;;;;;;3.13;0.60;;;10.40;99.90;;;;;;5009149;28;20096;-89
2023/03/16 12:35:46;;;;;;;1.90;0.50;;;10.70;99.90;;;;;;5024506;28;20139;-90
2023/03/16 12:38:36;;;;;;;1.88;0.50;;;10.60;99.90;;;;;;5025925;28;20116;-87
2023/03/16 12:41:13;;;;;;;2.40;0.75;;;10.60;99.90;;;;;;5020025;28;20021;-89
2023/03/16 12:43:51;;;;;;;3.50;0.60;;;10.70;99.90;;;;;;5007835;28;20139;-89
2023/03/16 12:46:51;;;;;;;2.65;0.80;;;10.70;99.90;;;;;;5017743;28;20061;-89
2023/03/16 12:49:18;;;;;;;2.33;0.50;;;10.80;99.90;;;;;;5026479;28;20453;-89
2023/03/16 12:51:44;;;;;;;2.80;0.70;;;11.10;99.90;;;;;;5016807;28;20033;-89
2023/03/16 12:54:24;;;;;;;2.85;0.63;;;11.10;99.90;;;;;;5017584;28;20026;-90
2023/03/16 12:56:55;;;;;;;1.90;0.70;;;11.20;99.90;;;;;;5037903;28;20030;-90
2023/03/16 12:59:23;;;;;;;4.00;0.63;;;11.40;99.90;;;;;;5016258;28;20460;-90
2023/03/16 13:01:57;;;;;;;2.08;0.70;;;11.50;99.90;;;;;;5028312;28;20500;-90
2023/03/16 13:04:37;;;;;;;2.20;0.60;;;11.80;99.90;;;;;;5008266;28;20505;-90
2023/03/16 13:07:10;;;;;;;1.65;0.60;;;11.70;99.90;;;;;;5015607;28;20121;-91
2023/03/16 13:09:44;;;;;;;1.48;0.55;;;11.60;99.90;;;;;;5033961;28;20039;-90
2023/03/16 13:12:26;;;;;;;2.58;0.60;;;11.60;99.90;;;;;;5016979;28;20108;-91
2023/03/16 13:14:55;;;;;;;1.17;0.50;;;11.70;99.90;;;;;;5032741;28;20029;-89
2023/03/16 13:17:26;;;;;;;3.10;0.50;;;11.80;99.90;;;;;;5018379;28;20102;-93
2023/03/16 13:20:24;;;;;;;2.22;0.60;;;11.80;99.90;;;;;;5011600;28;20371;-88